CYBQ

Tadoule Lake  Airport

Tadoule Lake, Manitoba, Canada

CYBQ 241400Z AUTO 33006KT 9SM OVC005 M23/M25 A2940 RMK SLP993

Observed Flight Rules
Nov-24 @ 14:00 UTC (an hour ago)
 
Instrument Flight Rules
Wind Visibility Clouds
330° at 6 knots 9 miles
  • Overcast at 500' AGL
Temperatures Readings
Current -23°C / -9°F
Dewpoint -25°C / -13°F
Humidity 84%
Altimeter 29.4" Hg
Pressure 999.3 hPa
Elevation 262
Observed Flight Rules
Nov-24 @ 14:00 UTC
(an hour ago)
 
IFR
Wind Visibility
330° at 6 knots 9 miles
Clouds
  • Overcast at 500' AGL
Temperature Dewpoint
-23°C / -9°F -25°C / -13°F
Humidity Altimeter Pressure
84% 29.4" Hg 999.3 hPa